Aeroporto :
LOGIN :

Iscrizione | Disclaimer

   EN    FR    IT 

 










Sommario :    VFR   VFR Marginale   IFR   IFR Intensivo   IFR Molto Intensivo
Visibilità : 
Base nubi : 
>= 8 km
>= 3000ft
5 / 8 km
1000 / 3000 ft
1500m / 5 km
500 / 1000 ft
800 / 1500m
200 / 500 ft
< 800m
< 200 ft
Simboli :   Temporali  Nebbia  Neve Forte  Precipitazioni Forti  Vento > 20 kt
SIGMETs :   Varie  Temporali  Ghiacco  Turbolenza  Onda orograficha  Ceneri Vulcaniche






- Altitudine del aeroporto : 464 ft
- Codice IATA : EVX


LFOE - Evreux

ULTIMO METAR :
  • 250630Z AUTO 28012KT 9999 FEW011 SCT023 OVC040 07/05 Q1008 TEMPO 27020G30KT 4000 -SHRA SCT010 BKN020TCU

METARs OBSOLETI :
  • 250600Z AUTO 28012KT 9999 SCT008 BKN013 OVC020 08/06 Q1008 BECMG 26015G25KT SCT014 SCT030
  • 250530Z AUTO 28008KT 9999 FEW021 OVC039 07/06 Q1008 BECMG 26015G25KT
  • 250500Z AUTO 28010KT 9999 BKN015 BKN027 OVC036 08/06 Q1008 BECMG 28015G25KT 4000 -RA
  • 250430Z AUTO 27009KT 9999 OVC028 08/06 Q1008 BECMG 28015G25KT 4000 -RA
  • 250400Z AUTO 27008KT 9999 OVC033 08/06 Q1008 BECMG 28015G25KT 4000 -RA
  • 250330Z AUTO 28010KT 9999 FEW009/// OVC028/// ///TCU 08/06 Q1008 BECMG 28015G25KT 4000 -RA SCT025

TAF AMD TAF LFOE
Valido dal 25 a 05 ore il 26 a 03 ore UTC


250500Z 2505/2603 28010G20KT 9999 SCT014 SCT030
BECMG 2506/2508 26015G25KT
TEMPO 2508/2512 27020G30KT 4000 -SHRA SCT010 BKN020TCU
TEMPO 2512/2521 29020G40KT 2000 SHRAGS BKN023CB
TEMPO 2521/2601 29020G35KT 2000 SHRASN BKN025CB
TEMPO 2601/2603 28020G35KT 1000 SHSN BKN010CB



MetMap, La meteo Aeronautica in un colpo d'occhio ! - Copyright ORBIFLY Dicembre 2007 - Disclaimer

ORBIFLY MET'MAP TEAM :

Programmazione e sviluppo : Alexandra Zaïnal
Concezione : Baudouin d'Aumeries
Aiuto per la programmazione : Marc-Olivier Méhu
Supporto tecnico e logistico : Manuel Goepfert
Aiuto per la traduzione : Arnaldo La Scala

Contatto : metmap@orbifly.com




FONTI E CREDITI :

   NOAA